createdAt,value
2023-02-01T00:01:24.524Z,4.60
2023-02-01T00:03:54.659Z,4.60
2023-02-01T00:06:21.561Z,4.60
2023-02-01T00:08:50.677Z,4.50
2023-02-01T00:11:19.744Z,4.50
2023-02-01T00:13:46.719Z,4.50
2023-02-01T00:16:19.476Z,4.50
2023-02-01T00:18:50.807Z,4.50
2023-02-01T00:21:20.521Z,4.50
2023-02-01T00:23:47.546Z,4.50
2023-02-01T00:26:25.924Z,4.60
2023-02-01T00:28:52.841Z,4.60
2023-02-01T00:31:19.842Z,4.60
2023-02-01T00:33:48.976Z,4.60
2023-02-01T00:36:16.343Z,4.60
2023-02-01T00:38:43.224Z,4.60
2023-02-01T00:41:14.464Z,4.60
2023-02-01T00:43:41.889Z,4.70
2023-02-01T00:46:09.100Z,4.60
2023-02-01T00:48:38.677Z,4.60
2023-02-01T00:51:08.464Z,4.60
2023-02-01T00:53:35.637Z,4.60
2023-02-01T00:56:06.204Z,4.60
2023-02-01T00:58:35.976Z,4.60
2023-02-01T01:01:06.392Z,4.60
2023-02-01T01:03:39.184Z,4.60
2023-02-01T01:06:09.671Z,4.60
2023-02-01T01:08:37.696Z,4.50
2023-02-01T01:11:14.152Z,4.50
2023-02-01T01:13:41.463Z,4.50
2023-02-01T01:16:09.324Z,4.50
2023-02-01T01:18:36.911Z,4.50
2023-02-01T01:21:09.247Z,4.50
2023-02-01T01:23:39.377Z,4.50
2023-02-01T01:26:16.542Z,4.50
2023-02-01T01:28:43.925Z,4.50
2023-02-01T01:31:13.499Z,4.60
2023-02-01T01:33:40.973Z,4.60
2023-02-01T01:36:12.924Z,4.70
2023-02-01T01:38:45.741Z,4.70
2023-02-01T01:41:25.570Z,4.70
2023-02-01T01:44:00.265Z,4.70
2023-02-01T01:46:33.799Z,4.70
2023-02-01T01:49:05.729Z,4.80
2023-02-01T01:51:41.870Z,4.80
2023-02-01T01:54:21.216Z,4.80
2023-02-01T01:56:57.437Z,4.80
2023-02-01T01:59:29.281Z,4.80
2023-02-01T02:01:59.348Z,4.80
2023-02-01T02:04:26.863Z,4.80
2023-02-01T02:07:00.812Z,4.80
2023-02-01T02:09:27.750Z,4.90
2023-02-01T02:11:54.824Z,4.90
2023-02-01T02:14:24.437Z,4.90
2023-02-01T02:17:18.261Z,4.90
2023-02-01T02:19:54.261Z,4.90
2023-02-01T02:22:45.490Z,4.90
2023-02-01T02:25:21.062Z,5.00
2023-02-01T02:27:59.983Z,4.90
2023-02-01T02:30:36.024Z,4.90
2023-02-01T02:33:38.263Z,5.00
2023-02-01T02:36:27.021Z,5.00
2023-02-01T02:39:06.807Z,5.00
2023-02-01T02:42:06.538Z,5.00
2023-02-01T02:45:07.151Z,5.00
2023-02-01T02:47:40.340Z,5.00
2023-02-01T02:50:40.082Z,4.90
2023-02-01T02:53:43.562Z,5.00
2023-02-01T02:56:30.510Z,4.90
2023-02-01T02:59:18.582Z,4.90
2023-02-01T03:02:04.190Z,5.00
2023-02-01T03:04:31.115Z,5.00
2023-02-01T03:06:58.521Z,4.90
2023-02-01T03:09:34.806Z,4.90
2023-02-01T03:12:28.034Z,5.00
2023-02-01T03:15:02.009Z,4.90
2023-02-01T03:17:36.365Z,4.90
2023-02-01T03:20:06.049Z,4.90
2023-02-01T03:22:35.154Z,4.90
2023-02-01T03:25:18.972Z,5.00
2023-02-01T03:28:00.412Z,4.90
2023-02-01T03:30:37.767Z,4.90
2023-02-01T03:33:14.807Z,5.00
2023-02-01T03:35:56.394Z,5.00
2023-02-01T03:38:39.749Z,5.00
2023-02-01T03:41:11.016Z,5.00
2023-02-01T03:43:47.008Z,5.00
2023-02-01T03:46:21.963Z,5.00
2023-02-01T03:48:51.667Z,4.90
2023-02-01T03:51:23.893Z,5.00
2023-02-01T03:53:51.221Z,5.00
2023-02-01T03:56:19.503Z,4.90
2023-02-01T03:58:59.737Z,4.90
2023-02-01T04:01:31.699Z,4.90
2023-02-01T04:03:59.909Z,4.90
2023-02-01T04:06:29.273Z,4.80
2023-02-01T04:09:00.425Z,4.80
2023-02-01T04:11:30.188Z,4.80
2023-02-01T04:13:57.154Z,4.80
2023-02-01T04:16:24.043Z,4.80
2023-02-01T04:21:17.942Z,4.80
2023-02-01T04:23:46.971Z,4.80
2023-02-01T04:26:13.815Z,4.70
2023-02-01T04:28:40.662Z,4.70
2023-02-01T04:31:09.973Z,4.70
2023-02-01T04:33:37.125Z,4.70
2023-02-01T04:36:06.418Z,4.70
2023-02-01T04:38:33.467Z,4.70
2023-02-01T04:41:03.325Z,4.70
2023-02-01T04:43:32.460Z,4.70
2023-02-01T04:45:59.348Z,4.70
2023-02-01T04:48:26.389Z,4.70
2023-02-01T04:50:53.339Z,4.60
2023-02-01T04:53:22.522Z,4.60
2023-02-01T04:55:54.110Z,4.60
2023-02-01T04:58:21.026Z,4.70
2023-02-01T05:00:48.152Z,4.70
2023-02-01T05:03:17.158Z,4.70
2023-02-01T05:05:46.728Z,4.70
2023-02-01T05:08:16.239Z,4.70
2023-02-01T05:10:43.174Z,4.70
2023-02-01T05:13:29.669Z,4.70
2023-02-01T05:16:03.604Z,4.80
2023-02-01T05:18:32.666Z,4.80
2023-02-01T05:20:59.493Z,4.80
2023-02-01T05:23:26.398Z,4.80
2023-02-01T05:25:53.189Z,4.80
2023-02-01T05:28:20.110Z,4.80
2023-02-01T05:30:49.303Z,4.80
2023-02-01T05:33:16.240Z,4.80
2023-02-01T05:35:45.561Z,4.80
2023-02-01T05:38:13.727Z,4.80
2023-02-01T05:40:40.556Z,4.80
2023-02-01T05:43:09.717Z,4.80
2023-02-01T05:45:36.790Z,4.90
2023-02-01T05:48:06.425Z,4.90
2023-02-01T05:50:33.424Z,4.90
2023-02-01T05:53:11.525Z,4.90
2023-02-01T05:55:38.878Z,4.90
2023-02-01T05:58:08.310Z,5.00
2023-02-01T06:00:35.558Z,5.00
2023-02-01T06:03:02.752Z,5.10
2023-02-01T06:05:34.196Z,5.10
2023-02-01T06:08:03.763Z,5.10
2023-02-01T06:10:30.604Z,5.10
2023-02-01T06:12:57.568Z,5.10
2023-02-01T06:15:26.710Z,5.10
2023-02-01T06:17:53.647Z,5.20
2023-02-01T06:20:20.823Z,5.20
2023-02-01T06:22:47.817Z,5.20
2023-02-01T06:25:14.781Z,5.20
2023-02-01T06:27:41.664Z,5.20
2023-02-01T06:30:09.236Z,5.30
2023-02-01T06:32:36.655Z,5.30
2023-02-01T06:35:08.616Z,5.20
2023-02-01T06:37:37.978Z,5.10
2023-02-01T06:40:08.791Z,5.10
2023-02-01T06:42:35.755Z,5.00
2023-02-01T06:45:05.008Z,4.90
2023-02-01T06:47:31.870Z,4.90
2023-02-01T06:50:01.147Z,4.90
2023-02-01T06:52:30.164Z,4.90
2023-02-01T06:54:57.163Z,4.80
2023-02-01T06:57:31.543Z,4.80
2023-02-01T06:59:59.504Z,4.70
2023-02-01T07:02:26.591Z,4.60
2023-02-01T07:04:53.618Z,4.50
2023-02-01T07:07:23.578Z,4.50
2023-02-01T07:09:51.042Z,4.50
2023-02-01T07:12:17.966Z,4.50
2023-02-01T07:14:44.942Z,4.60
2023-02-01T07:17:11.978Z,4.60
2023-02-01T07:19:38.904Z,4.60
2023-02-01T07:22:05.892Z,4.60
2023-02-01T07:24:35.397Z,4.70
2023-02-01T07:27:05.631Z,4.80
2023-02-01T07:29:34.655Z,4.80
2023-02-01T07:32:03.355Z,4.90
2023-02-01T07:34:33.866Z,4.90
2023-02-01T07:37:00.886Z,5.00
2023-02-01T07:39:32.865Z,5.00
2023-02-01T07:41:59.832Z,5.00
2023-02-01T07:44:26.732Z,5.10
2023-02-01T07:46:53.640Z,5.10
2023-02-01T07:49:22.622Z,5.10
2023-02-01T07:51:49.529Z,5.10
2023-02-01T07:54:18.728Z,5.10
2023-02-01T07:56:45.596Z,5.10
2023-02-01T07:59:12.932Z,5.20
2023-02-01T08:01:39.735Z,5.30
2023-02-01T08:04:06.676Z,5.40
2023-02-01T08:06:35.524Z,5.40
2023-02-01T08:09:03.107Z,5.50
2023-02-01T08:11:33.094Z,5.60
2023-02-01T08:14:00.102Z,5.60
2023-02-01T08:16:29.331Z,5.60
2023-02-01T08:18:56.715Z,5.60
2023-02-01T08:21:29.407Z,5.70
2023-02-01T08:23:57.280Z,5.70
2023-02-01T08:26:29.541Z,5.60
2023-02-01T08:28:59.545Z,5.60
2023-02-01T08:31:28.452Z,5.60
2023-02-01T08:34:01.922Z,5.60
2023-02-01T08:36:31.064Z,5.70
2023-02-01T08:39:00.773Z,5.60
2023-02-01T08:41:33.391Z,5.60
2023-02-01T08:44:00.391Z,5.70
2023-02-01T08:46:27.659Z,5.70
2023-02-01T08:48:54.901Z,5.70
2023-02-01T08:51:23.440Z,5.70
2023-02-01T08:53:53.179Z,5.90
2023-02-01T08:56:21.980Z,6.00
2023-02-01T08:58:48.935Z,6.10
2023-02-01T09:01:18.687Z,6.10
2023-02-01T09:03:48.000Z,6.10
2023-02-01T09:06:18.588Z,6.00
2023-02-01T09:08:45.768Z,6.00
2023-02-01T09:11:18.241Z,6.00
2023-02-01T09:13:45.538Z,6.00
2023-02-01T09:16:15.374Z,5.90
2023-02-01T09:18:55.327Z,6.00
2023-02-01T09:21:29.083Z,5.90
2023-02-01T09:23:55.975Z,5.90
2023-02-01T09:26:32.041Z,5.90
2023-02-01T09:29:00.693Z,5.80
2023-02-01T09:31:30.685Z,5.90
2023-02-01T09:33:57.947Z,5.90
2023-02-01T09:36:27.948Z,5.90
2023-02-01T09:39:04.168Z,5.80
2023-02-01T09:41:35.294Z,5.90
2023-02-01T09:44:02.291Z,5.90
2023-02-01T09:46:32.296Z,6.00
2023-02-01T09:49:07.399Z,6.00
2023-02-01T09:51:44.894Z,6.20
2023-02-01T09:54:32.812Z,6.40
2023-02-01T09:57:23.660Z,6.50
2023-02-01T10:00:05.610Z,6.60
2023-02-01T10:02:41.071Z,6.60
2023-02-01T10:05:15.828Z,6.60
2023-02-01T10:08:18.385Z,6.60
2023-02-01T10:10:51.592Z,6.50
2023-02-01T10:13:27.433Z,6.50
2023-02-01T10:16:15.416Z,6.60
2023-02-01T10:18:52.231Z,6.80
2023-02-01T10:21:24.322Z,6.80
2023-02-01T10:24:17.606Z,6.80
2023-02-01T10:27:24.427Z,6.80
2023-02-01T10:30:05.871Z,6.70
2023-02-01T10:32:38.303Z,6.80
2023-02-01T10:35:18.781Z,7.00
2023-02-01T10:37:46.767Z,7.00
2023-02-01T10:40:27.399Z,7.00
2023-02-01T10:43:02.939Z,7.00
2023-02-01T10:45:34.014Z,6.90
2023-02-01T10:48:03.774Z,7.00
2023-02-01T10:50:41.530Z,7.00
2023-02-01T10:53:25.867Z,6.90
2023-02-01T10:55:55.344Z,6.80
2023-02-01T10:58:28.817Z,6.70
2023-02-01T11:00:58.219Z,6.80
2023-02-01T11:03:59.983Z,6.90
2023-02-01T11:06:36.789Z,7.10
2023-02-01T11:09:09.681Z,7.20
2023-02-01T11:11:50.868Z,7.30
2023-02-01T11:14:20.561Z,7.20
2023-02-01T11:16:54.005Z,7.20
2023-02-01T11:19:24.188Z,7.20
2023-02-01T11:22:00.383Z,7.20
2023-02-01T11:24:36.547Z,7.30
2023-02-01T11:27:07.202Z,7.40
2023-02-01T11:29:43.971Z,7.30
2023-02-01T11:32:13.842Z,7.20
2023-02-01T11:34:52.026Z,7.20
2023-02-01T11:37:40.995Z,7.10
2023-02-01T11:40:16.969Z,7.10
2023-02-01T11:43:08.539Z,7.00
2023-02-01T11:45:38.634Z,7.10
2023-02-01T11:48:26.235Z,7.30
2023-02-01T11:51:11.985Z,7.40
2023-02-01T11:53:58.629Z,7.40
2023-02-01T11:56:39.205Z,7.50
2023-02-01T11:59:20.263Z,7.70
2023-02-01T12:01:56.047Z,7.90
2023-02-01T12:05:08.689Z,8.00
2023-02-01T12:08:03.117Z,8.00
2023-02-01T12:10:54.970Z,8.00
2023-02-01T12:14:18.765Z,7.80
2023-02-01T12:16:52.378Z,7.70
2023-02-01T12:19:19.481Z,7.70
2023-02-01T12:22:17.918Z,7.60
2023-02-01T12:24:47.630Z,7.60
2023-02-01T12:27:46.290Z,7.40
2023-02-01T12:30:37.673Z,7.50
2023-02-01T12:33:12.725Z,7.40
2023-02-01T12:35:53.428Z,7.30
2023-02-01T12:38:41.434Z,7.30
2023-02-01T12:41:44.502Z,7.10
2023-02-01T12:44:38.711Z,7.00
2023-02-01T12:47:08.681Z,6.90
2023-02-01T12:49:45.499Z,6.90
2023-02-01T12:52:22.447Z,7.00
2023-02-01T12:54:57.324Z,7.00
2023-02-01T12:57:35.732Z,7.00
2023-02-01T13:00:27.651Z,6.80
2023-02-01T13:03:12.601Z,6.70
2023-02-01T13:05:57.554Z,6.70
2023-02-01T13:08:43.313Z,6.60
2023-02-01T13:11:31.229Z,6.60
2023-02-01T13:14:22.105Z,6.60
2023-02-01T13:16:57.461Z,6.60
2023-02-01T13:19:51.503Z,6.50
2023-02-01T13:22:33.895Z,6.50
2023-02-01T13:25:13.356Z,6.50
2023-02-01T13:27:40.736Z,6.50
2023-02-01T13:30:21.001Z,6.50
2023-02-01T13:33:52.774Z,6.40
2023-02-01T13:36:24.772Z,6.40
2023-02-01T13:39:12.280Z,6.30
2023-02-01T13:42:04.610Z,6.30
2023-02-01T13:44:41.237Z,6.30
2023-02-01T13:47:36.687Z,6.40
2023-02-01T13:50:26.530Z,6.50
2023-02-01T13:53:01.623Z,6.60
2023-02-01T13:55:40.544Z,6.70
2023-02-01T13:58:22.035Z,6.70
2023-02-01T14:01:10.119Z,6.60
2023-02-01T14:03:47.910Z,6.60
2023-02-01T14:06:28.480Z,6.50
2023-02-01T14:09:14.137Z,6.60
2023-02-01T14:11:52.027Z,6.50
2023-02-01T14:14:18.911Z,6.50
2023-02-01T14:16:53.999Z,6.50
2023-02-01T14:19:27.413Z,6.50
2023-02-01T14:22:02.702Z,6.50
2023-02-01T14:24:30.765Z,6.50
2023-02-01T14:27:03.151Z,6.40
2023-02-01T14:29:36.809Z,6.50
2023-02-01T14:32:19.164Z,6.60
2023-02-01T14:34:49.226Z,6.60
2023-02-01T14:37:18.564Z,6.60
2023-02-01T14:39:54.573Z,6.60
2023-02-01T14:42:42.480Z,6.70
2023-02-01T14:45:23.133Z,6.60
2023-02-01T14:48:16.963Z,6.60
2023-02-01T14:50:51.734Z,6.50
2023-02-01T14:53:21.493Z,6.50
2023-02-01T14:56:07.691Z,6.40
2023-02-01T14:58:53.466Z,6.40
2023-02-01T15:01:35.971Z,6.40
2023-02-01T15:04:15.929Z,6.40
2023-02-01T15:06:44.118Z,6.40
2023-02-01T15:09:32.823Z,6.40
2023-02-01T15:12:07.233Z,6.30
2023-02-01T15:14:44.202Z,6.30
2023-02-01T15:17:21.654Z,6.30
2023-02-01T15:20:00.056Z,6.30
2023-02-01T15:22:32.118Z,6.30
2023-02-01T15:25:02.239Z,6.30
2023-02-01T15:27:30.681Z,6.30
2023-02-01T15:30:08.770Z,6.40
2023-02-01T15:32:42.048Z,6.30
2023-02-01T15:35:39.033Z,6.30
2023-02-01T15:38:28.179Z,6.30
2023-02-01T15:41:06.737Z,6.30
2023-02-01T15:43:51.798Z,6.30
2023-02-01T15:46:33.240Z,6.20
2023-02-01T15:49:00.889Z,6.30
2023-02-01T15:51:34.029Z,6.20
2023-02-01T15:54:05.531Z,6.20
2023-02-01T15:56:41.953Z,6.20
2023-02-01T15:59:24.178Z,6.20
2023-02-01T16:01:52.357Z,6.20
2023-02-01T16:04:35.042Z,6.10
2023-02-01T16:07:22.598Z,6.10
2023-02-01T16:10:07.864Z,6.10
2023-02-01T16:12:39.181Z,6.00
2023-02-01T16:15:06.847Z,6.00
2023-02-01T16:17:33.766Z,6.00
2023-02-01T16:20:00.789Z,6.00
2023-02-01T16:22:29.891Z,5.90
2023-02-01T16:24:56.813Z,5.90
2023-02-01T16:27:26.288Z,5.90
2023-02-01T16:29:56.896Z,5.90
2023-02-01T16:32:24.224Z,5.90
2023-02-01T16:34:51.366Z,5.90
2023-02-01T16:37:21.996Z,5.80
2023-02-01T16:39:49.037Z,5.80
2023-02-01T16:42:17.371Z,5.80
2023-02-01T16:44:44.638Z,5.70
2023-02-01T16:47:13.117Z,5.70
2023-02-01T16:49:42.402Z,5.70
2023-02-01T16:52:17.931Z,5.70
2023-02-01T16:54:45.304Z,5.60
2023-02-01T16:57:16.880Z,5.60
2023-02-01T16:59:47.756Z,5.60
2023-02-01T17:02:22.884Z,5.60
2023-02-01T17:04:52.455Z,5.50
2023-02-01T17:07:20.181Z,5.50
2023-02-01T17:09:48.146Z,5.50
2023-02-01T17:12:29.534Z,5.50
2023-02-01T17:14:59.685Z,5.50
2023-02-01T17:17:39.717Z,5.60
2023-02-01T17:20:08.219Z,5.60
2023-02-01T17:22:37.692Z,5.60
2023-02-01T17:25:08.973Z,5.50
2023-02-01T17:27:41.995Z,5.60
2023-02-01T17:30:12.422Z,5.60
2023-02-01T17:32:42.242Z,5.50
2023-02-01T17:35:26.623Z,5.50
2023-02-01T17:37:56.523Z,5.50
2023-02-01T17:40:25.567Z,5.50
2023-02-01T17:42:57.430Z,5.50
2023-02-01T17:45:38.210Z,5.50
2023-02-01T17:48:06.742Z,5.50
2023-02-01T17:50:37.830Z,5.50
2023-02-01T17:53:10.016Z,5.60
2023-02-01T17:55:40.911Z,5.60
2023-02-01T17:58:10.885Z,5.60
2023-02-01T18:00:41.750Z,5.60
2023-02-01T18:03:23.886Z,5.60
2023-02-01T18:05:57.822Z,5.60
2023-02-01T18:08:27.554Z,5.40
2023-02-01T18:11:00.805Z,5.40
2023-02-01T18:13:29.194Z,5.40
2023-02-01T18:15:56.337Z,5.40
2023-02-01T18:18:23.249Z,5.40
2023-02-01T18:20:52.739Z,5.40
2023-02-01T18:23:24.014Z,5.50
2023-02-01T18:25:52.584Z,5.50
2023-02-01T18:28:20.503Z,5.50
2023-02-01T18:30:50.902Z,5.50
2023-02-01T18:33:20.736Z,5.60
2023-02-01T18:35:48.816Z,5.50
2023-02-01T18:38:18.827Z,5.60
2023-02-01T18:40:50.865Z,5.60
2023-02-01T18:43:18.131Z,5.60
2023-02-01T18:45:45.632Z,5.60
2023-02-01T18:48:14.895Z,5.60
2023-02-01T18:50:44.773Z,5.60
2023-02-01T18:53:20.323Z,5.60
2023-02-01T18:55:50.577Z,5.60
2023-02-01T18:58:18.306Z,5.60
2023-02-01T19:00:48.586Z,5.60
2023-02-01T19:03:18.497Z,5.60
2023-02-01T19:05:47.232Z,5.60
2023-02-01T19:08:18.424Z,5.60
2023-02-01T19:10:49.278Z,5.60
2023-02-01T19:13:23.532Z,5.50
2023-02-01T19:15:51.021Z,5.50
2023-02-01T19:18:20.542Z,5.50
2023-02-01T19:20:50.801Z,5.50
2023-02-01T19:23:19.263Z,5.50
2023-02-01T19:25:48.054Z,5.50
2023-02-01T19:28:15.861Z,5.80
2023-02-01T19:30:43.366Z,5.80
2023-02-01T19:33:10.797Z,5.70
2023-02-01T19:35:42.858Z,5.60
2023-02-01T19:38:16.638Z,5.50
2023-02-01T19:40:43.565Z,5.50
2023-02-01T19:43:10.567Z,5.40
2023-02-01T19:45:39.649Z,5.40
2023-02-01T19:48:07.884Z,5.40
2023-02-01T19:50:34.930Z,5.50
2023-02-01T19:53:02.010Z,5.50
2023-02-01T19:55:28.909Z,5.40
2023-02-01T19:57:55.825Z,5.40
2023-02-01T20:00:22.552Z,5.40
2023-02-01T20:02:51.935Z,5.50
2023-02-01T20:05:19.164Z,5.50
2023-02-01T20:07:46.121Z,5.50
2023-02-01T20:10:16.546Z,5.50
2023-02-01T20:12:48.783Z,5.50
2023-02-01T20:15:15.908Z,5.50
2023-02-01T20:17:43.074Z,5.50
2023-02-01T20:20:10.875Z,5.60
2023-02-01T20:22:37.893Z,5.60
2023-02-01T20:25:05.630Z,5.60
2023-02-01T20:27:35.645Z,5.60
2023-02-01T20:30:02.618Z,5.60
2023-02-01T20:32:30.141Z,5.60
2023-02-01T20:34:57.193Z,5.60
2023-02-01T20:37:24.364Z,5.60
2023-02-01T20:39:51.462Z,5.60
2023-02-01T20:42:18.473Z,5.60
2023-02-01T20:44:45.413Z,5.60
2023-02-01T20:47:13.519Z,5.60
2023-02-01T20:49:41.123Z,5.60
2023-02-01T20:52:08.106Z,5.70
2023-02-01T20:54:38.443Z,5.60
2023-02-01T20:57:07.982Z,5.70
2023-02-01T20:59:35.211Z,5.70
2023-02-01T21:02:03.000Z,5.70
2023-02-01T21:04:33.976Z,5.70
2023-02-01T21:07:02.917Z,5.70
2023-02-01T21:09:31.215Z,5.70
2023-02-01T21:11:59.571Z,5.70
2023-02-01T21:14:26.584Z,5.70
2023-02-01T21:16:53.638Z,5.60
2023-02-01T21:19:25.266Z,5.70
2023-02-01T21:21:53.436Z,5.60
2023-02-01T21:24:20.561Z,5.60
2023-02-01T21:26:51.222Z,5.70
2023-02-01T21:29:18.341Z,5.70
2023-02-01T21:31:46.371Z,5.70
2023-02-01T21:34:13.379Z,5.70
2023-02-01T21:36:42.626Z,5.70
2023-02-01T21:39:11.645Z,5.70
2023-02-01T21:41:57.724Z,5.70
2023-02-01T21:44:24.745Z,5.70
2023-02-01T21:46:56.574Z,5.70
2023-02-01T21:49:28.663Z,5.70
2023-02-01T21:51:56.374Z,5.70
2023-02-01T21:54:23.137Z,5.70
2023-02-01T21:56:50.201Z,5.70
2023-02-01T21:59:17.318Z,5.80
2023-02-01T22:01:44.645Z,5.70
2023-02-01T22:04:14.275Z,5.70
2023-02-01T22:06:48.083Z,5.60
2023-02-01T22:09:20.686Z,5.60
2023-02-01T22:11:48.798Z,5.60
2023-02-01T22:14:16.431Z,5.60
2023-02-01T22:16:43.475Z,5.60
2023-02-01T22:19:11.492Z,5.60
2023-02-01T22:21:42.345Z,5.60
2023-02-01T22:24:12.013Z,5.60
2023-02-01T22:26:42.203Z,5.50
2023-02-01T22:29:13.150Z,5.50
2023-02-01T22:31:43.216Z,5.60
2023-02-01T22:34:11.285Z,5.50
2023-02-01T22:36:39.025Z,5.50
2023-02-01T22:39:05.980Z,5.50
2023-02-01T22:41:33.141Z,5.60
2023-02-01T22:44:02.624Z,5.60
2023-02-01T22:46:31.441Z,5.60
2023-02-01T22:48:59.382Z,5.50
2023-02-01T22:51:29.361Z,5.60
2023-02-01T22:53:57.311Z,5.50
2023-02-01T22:56:32.941Z,5.50
2023-02-01T22:59:02.386Z,5.50
2023-02-01T23:01:29.606Z,5.60
2023-02-01T23:04:01.523Z,5.60
2023-02-01T23:06:29.230Z,5.60
2023-02-01T23:09:01.996Z,5.60
2023-02-01T23:11:29.492Z,5.60
2023-02-01T23:13:57.231Z,5.50
2023-02-01T23:16:24.169Z,5.50
2023-02-01T23:18:51.083Z,5.50
2023-02-01T23:21:20.062Z,5.40
2023-02-01T23:23:48.641Z,5.40
2023-02-01T23:26:16.118Z,5.40
2023-02-01T23:28:43.557Z,5.40
2023-02-01T23:31:13.516Z,5.40
2023-02-01T23:33:41.310Z,5.40
2023-02-01T23:36:11.806Z,5.40
2023-02-01T23:38:41.034Z,5.40
2023-02-01T23:41:13.715Z,5.40
2023-02-01T23:43:58.074Z,5.40
2023-02-01T23:46:41.570Z,5.40
2023-02-01T23:49:09.588Z,5.40
2023-02-01T23:51:37.046Z,5.40
2023-02-01T23:54:07.418Z,5.40
2023-02-01T23:56:35.263Z,5.40
2023-02-01T23:59:06.867Z,5.40
